createdAt,value
2018-07-24T00:02:15.156Z,62.26
2018-07-24T00:04:43.605Z,61.43
2018-07-24T00:07:12.762Z,61.80
2018-07-24T00:09:41.220Z,62.36
2018-07-24T00:12:09.688Z,61.78
2018-07-24T00:14:38.097Z,62.26
2018-07-24T00:17:06.539Z,62.91
2018-07-24T00:19:34.985Z,62.51
2018-07-24T00:22:04.235Z,61.93
2018-07-24T00:24:33.128Z,62.84
2018-07-24T00:27:01.697Z,62.64
2018-07-24T00:29:30.196Z,62.54
2018-07-24T00:31:58.675Z,61.93
2018-07-24T00:34:27.123Z,61.66
2018-07-24T00:36:56.904Z,62.02
2018-07-24T00:39:25.535Z,61.81
2018-07-24T00:41:53.949Z,62.05
2018-07-24T00:44:22.360Z,62.58
2018-07-24T00:46:50.801Z,61.59
2018-07-24T00:49:19.249Z,62.01
2018-07-24T00:51:48.435Z,61.75
2018-07-24T00:54:16.980Z,62.09
2018-07-24T00:56:45.820Z,62.60
2018-07-24T00:59:14.624Z,61.94
2018-07-24T01:01:43.183Z,62.73
2018-07-24T01:04:11.755Z,62.49
2018-07-24T01:06:40.566Z,63.02
2018-07-24T01:09:10.371Z,62.27
2018-07-24T01:11:38.931Z,62.96
2018-07-24T01:14:07.624Z,63.18
2018-07-24T01:16:36.109Z,63.50
2018-07-24T01:19:04.595Z,63.30
2018-07-24T01:21:33.073Z,63.09
2018-07-24T01:24:01.502Z,63.48
2018-07-24T01:26:29.968Z,63.78
2018-07-24T01:28:58.575Z,64.08
2018-07-24T01:31:27.113Z,64.18
2018-07-24T01:33:55.528Z,64.73
2018-07-24T01:36:24.289Z,64.32
2018-07-24T01:38:52.817Z,65.01
2018-07-24T01:41:21.634Z,64.46
2018-07-24T01:43:50.126Z,64.34
2018-07-24T01:46:18.772Z,64.70
2018-07-24T01:48:47.282Z,64.76
2018-07-24T01:51:16.737Z,65.04
2018-07-24T01:53:48.387Z,66.04
2018-07-24T01:56:16.872Z,66.01
2018-07-24T01:58:45.319Z,65.88
2018-07-24T02:01:13.755Z,66.38
2018-07-24T02:03:42.454Z,65.82
2018-07-24T02:06:11.127Z,65.60
2018-07-24T02:08:39.812Z,66.52
2018-07-24T02:11:08.513Z,66.32
2018-07-24T02:13:37.171Z,65.83
2018-07-24T02:16:05.622Z,65.91
2018-07-24T02:18:34.065Z,66.55
2018-07-24T02:21:02.476Z,66.78
2018-07-24T02:23:31.321Z,66.76
2018-07-24T02:25:59.762Z,66.75
2018-07-24T02:28:28.505Z,66.93
2018-07-24T02:30:57.178Z,66.22
2018-07-24T02:33:25.613Z,67.02
2018-07-24T02:35:54.261Z,66.79
2018-07-24T02:38:22.776Z,67.30
2018-07-24T02:40:51.257Z,66.71
2018-07-24T02:43:19.825Z,66.46
2018-07-24T02:45:48.373Z,67.12
2018-07-24T02:48:16.776Z,66.87
2018-07-24T02:50:45.252Z,66.83
2018-07-24T02:53:13.668Z,66.81
2018-07-24T02:55:42.207Z,67.50
2018-07-24T02:58:11.308Z,67.17
2018-07-24T03:00:39.758Z,68.15
2018-07-24T03:03:08.365Z,67.39
2018-07-24T03:05:37.012Z,67.58
2018-07-24T03:08:05.767Z,68.13
2018-07-24T03:10:34.213Z,67.37
2018-07-24T03:13:02.750Z,67.66
2018-07-24T03:15:31.359Z,67.44
2018-07-24T03:17:59.927Z,67.20
2018-07-24T03:20:28.414Z,67.62
2018-07-24T03:22:57.341Z,67.93
2018-07-24T03:25:26.003Z,68.13
2018-07-24T03:27:55.168Z,68.11
2018-07-24T03:30:23.873Z,68.10
2018-07-24T03:32:52.393Z,68.38
2018-07-24T03:35:21.068Z,67.79
2018-07-24T03:37:49.984Z,67.49
2018-07-24T03:40:18.702Z,68.47
2018-07-24T03:42:47.319Z,67.59
2018-07-24T03:45:16.079Z,67.92
2018-07-24T03:47:44.985Z,67.40
2018-07-24T03:50:14.078Z,67.63
2018-07-24T03:52:42.911Z,67.40
2018-07-24T03:55:12.029Z,67.88
2018-07-24T03:57:40.929Z,68.17
2018-07-24T04:00:09.826Z,67.87
2018-07-24T04:02:38.975Z,68.47
2018-07-24T04:05:07.806Z,67.51
2018-07-24T04:07:37.213Z,67.73
2018-07-24T04:10:06.245Z,67.67
2018-07-24T04:12:35.198Z,67.69
2018-07-24T04:15:03.982Z,68.29
2018-07-24T04:17:32.931Z,68.37
2018-07-24T04:20:01.732Z,67.76
2018-07-24T04:22:30.556Z,68.08
2018-07-24T04:24:59.903Z,67.96
2018-07-24T04:27:28.684Z,67.66
2018-07-24T04:29:57.941Z,67.67
2018-07-24T04:32:27.092Z,67.53
2018-07-24T04:34:56.015Z,67.60
2018-07-24T04:37:24.805Z,67.22
2018-07-24T04:39:53.915Z,66.62
2018-07-24T04:42:23.475Z,66.91
2018-07-24T04:44:52.541Z,66.63
2018-07-24T04:47:21.387Z,66.53
2018-07-24T04:49:50.189Z,67.37
2018-07-24T04:52:18.881Z,67.34
2018-07-24T04:54:47.786Z,66.65
2018-07-24T04:57:16.633Z,66.35
2018-07-24T04:59:45.211Z,66.42
2018-07-24T05:02:13.892Z,66.00
2018-07-24T05:04:42.713Z,65.76
2018-07-24T05:07:11.858Z,66.17
2018-07-24T05:09:40.534Z,65.14
2018-07-24T05:12:09.940Z,65.57
2018-07-24T05:14:39.740Z,65.88
2018-07-24T05:17:08.534Z,65.39
2018-07-24T05:19:37.314Z,64.62
2018-07-24T05:22:06.369Z,64.58
2018-07-24T05:24:35.206Z,64.33
2018-07-24T05:27:04.586Z,64.38
2018-07-24T05:29:33.429Z,64.11
2018-07-24T05:32:02.484Z,64.10
2018-07-24T05:34:31.318Z,63.77
2018-07-24T05:37:00.202Z,64.16
2018-07-24T05:39:28.827Z,64.48
2018-07-24T05:41:57.799Z,64.12
2018-07-24T05:44:26.436Z,64.55
2018-07-24T05:46:55.151Z,63.54
2018-07-24T05:49:24.151Z,63.54
2018-07-24T05:51:53.868Z,63.38
2018-07-24T05:54:22.834Z,63.32
2018-07-24T05:56:51.651Z,63.34
2018-07-24T05:59:20.986Z,63.25
2018-07-24T06:01:49.855Z,63.20
2018-07-24T06:04:18.536Z,62.76
2018-07-24T06:06:47.336Z,62.48
2018-07-24T06:09:16.067Z,62.06
2018-07-24T06:11:44.731Z,62.25
2018-07-24T06:14:13.675Z,62.23
2018-07-24T06:16:42.449Z,62.24
2018-07-24T06:19:11.451Z,60.90
2018-07-24T06:21:40.562Z,61.94
2018-07-24T06:24:09.535Z,60.71
2018-07-24T06:26:38.324Z,61.67
2018-07-24T06:29:07.130Z,61.30
2018-07-24T06:31:36.158Z,60.86
2018-07-24T06:34:05.188Z,60.87
2018-07-24T06:36:33.927Z,61.27
2018-07-24T06:39:03.592Z,60.74
2018-07-24T06:41:32.208Z,60.31
2018-07-24T06:44:00.939Z,60.08
2018-07-24T06:46:29.744Z,60.51
2018-07-24T06:48:58.392Z,60.38
2018-07-24T06:51:27.015Z,60.12
2018-07-24T06:53:55.656Z,60.06
2018-07-24T06:56:24.275Z,60.24
2018-07-24T06:58:53.172Z,60.41
2018-07-24T07:01:22.045Z,59.12
2018-07-24T07:03:50.826Z,59.88
2018-07-24T07:06:19.579Z,58.60
2018-07-24T07:08:48.561Z,59.17
2018-07-24T07:11:17.390Z,58.80
2018-07-24T07:13:46.076Z,57.80
2018-07-24T07:16:14.882Z,58.44
2018-07-24T07:18:43.761Z,57.47
2018-07-24T07:21:12.329Z,57.90
2018-07-24T07:23:41.024Z,57.17
2018-07-24T07:26:10.210Z,57.64
2018-07-24T07:28:39.015Z,57.43
2018-07-24T07:31:08.087Z,56.93
2018-07-24T07:33:36.929Z,56.57
2018-07-24T07:36:12.228Z,55.95
2018-07-24T07:38:41.056Z,55.12
2018-07-24T07:41:10.117Z,55.83
2018-07-24T07:43:39.009Z,55.16
2018-07-24T07:46:08.596Z,55.89
2018-07-24T07:48:37.140Z,55.86
2018-07-24T07:51:06.445Z,54.97
2018-07-24T07:53:35.396Z,55.15
2018-07-24T07:56:04.821Z,54.60
2018-07-24T07:58:33.732Z,53.59
2018-07-24T08:01:02.393Z,54.28
2018-07-24T08:03:31.376Z,52.56
2018-07-24T08:05:59.961Z,52.30
2018-07-24T08:08:28.677Z,51.75
2018-07-24T08:10:57.419Z,51.81
2018-07-24T08:13:26.319Z,51.30
2018-07-24T08:15:55.094Z,51.77
2018-07-24T08:18:23.736Z,50.93
2018-07-24T08:20:52.442Z,51.66
2018-07-24T08:23:21.167Z,51.21
2018-07-24T08:25:49.839Z,51.17
2018-07-24T08:28:18.969Z,50.55
2018-07-24T08:30:47.618Z,49.67
2018-07-24T08:33:16.552Z,50.37
2018-07-24T08:35:45.802Z,50.58
2018-07-24T08:38:14.369Z,47.06
2018-07-24T08:40:43.084Z,45.70
2018-07-24T08:43:12.900Z,43.43
2018-07-24T08:45:41.695Z,44.37
2018-07-24T08:48:10.464Z,43.41
2018-07-24T08:50:39.370Z,42.19
2018-07-24T08:53:09.161Z,41.76
2018-07-24T08:55:38.805Z,42.08
2018-07-24T08:58:07.716Z,43.94
2018-07-24T09:00:36.719Z,43.89
2018-07-24T09:03:05.885Z,42.73
2018-07-24T09:05:34.733Z,42.20
2018-07-24T09:08:03.546Z,41.13
2018-07-24T09:10:32.368Z,40.93
2018-07-24T09:13:01.490Z,39.21
2018-07-24T09:15:30.357Z,38.71
2018-07-24T09:17:59.112Z,39.62
2018-07-24T09:20:28.268Z,39.71
2018-07-24T09:22:57.963Z,40.02
2018-07-24T09:25:27.258Z,39.89
2018-07-24T09:27:56.099Z,38.01
2018-07-24T09:30:24.911Z,37.83
2018-07-24T09:32:53.847Z,38.07
2018-07-24T09:35:23.482Z,38.86
2018-07-24T09:37:52.233Z,37.92
2018-07-24T09:40:21.131Z,37.75
2018-07-24T09:42:50.202Z,37.20
2018-07-24T09:45:18.796Z,35.82
2018-07-24T09:47:48.377Z,36.90
2018-07-24T09:50:16.937Z,36.70
2018-07-24T09:52:45.658Z,36.04
2018-07-24T09:55:14.649Z,36.51
2018-07-24T09:57:43.611Z,34.54
2018-07-24T10:00:12.649Z,34.46
2018-07-24T10:02:44.615Z,34.77
2018-07-24T10:05:20.054Z,33.56
2018-07-24T10:07:48.984Z,33.23
2018-07-24T10:10:17.625Z,32.92
2018-07-24T10:12:46.328Z,32.55
2018-07-24T10:15:15.128Z,32.36
2018-07-24T10:17:43.883Z,32.28
2018-07-24T10:20:13.573Z,31.17
2018-07-24T10:22:45.572Z,32.54
2018-07-24T10:25:14.524Z,32.01
2018-07-24T10:27:43.312Z,31.11
2018-07-24T10:30:12.084Z,31.24
2018-07-24T10:32:40.804Z,31.61
2018-07-24T10:35:09.821Z,30.80
2018-07-24T10:37:38.474Z,30.74
2018-07-24T10:40:07.275Z,31.08
2018-07-24T10:42:35.903Z,31.12
2018-07-24T10:45:05.420Z,30.53
2018-07-24T10:47:34.303Z,31.11
2018-07-24T10:50:02.919Z,30.76
2018-07-24T10:52:31.731Z,30.22
2018-07-24T10:55:00.702Z,30.10
2018-07-24T10:57:29.593Z,29.02
2018-07-24T10:59:58.546Z,30.16
2018-07-24T11:02:27.474Z,28.82
2018-07-24T11:04:56.458Z,29.03
2018-07-24T11:07:25.362Z,29.74
2018-07-24T11:09:59.484Z,29.75
2018-07-24T11:12:28.761Z,28.35
2018-07-24T11:14:57.583Z,29.54
2018-07-24T11:17:26.482Z,28.81
2018-07-24T11:19:55.251Z,27.73
2018-07-24T11:22:24.281Z,27.94
2018-07-24T11:24:53.379Z,28.73
2018-07-24T11:27:22.150Z,28.44
2018-07-24T11:29:50.711Z,27.26
2018-07-24T11:32:19.728Z,27.53
2018-07-24T11:34:48.635Z,26.41
2018-07-24T11:37:18.333Z,27.04
2018-07-24T11:39:47.168Z,27.77
2018-07-24T11:42:15.981Z,27.25
2018-07-24T11:44:45.027Z,26.51
2018-07-24T11:47:14.001Z,25.67
2018-07-24T11:49:43.071Z,25.84
2018-07-24T11:52:12.169Z,24.76
2018-07-24T11:54:41.226Z,25.31
2018-07-24T11:57:10.511Z,24.42
2018-07-24T11:59:39.666Z,24.32
2018-07-24T12:02:08.606Z,24.53
2018-07-24T12:04:37.306Z,24.08
2018-07-24T12:07:06.474Z,24.70
2018-07-24T12:09:35.271Z,24.33
2018-07-24T12:12:07.106Z,23.57
2018-07-24T12:14:36.068Z,23.16
2018-07-24T12:17:07.893Z,23.88
2018-07-24T12:19:37.140Z,24.48
2018-07-24T12:22:06.129Z,23.76
2018-07-24T12:24:35.051Z,23.27
2018-07-24T12:27:10.438Z,22.35
2018-07-24T12:29:45.635Z,24.12
2018-07-24T12:32:15.097Z,23.90
2018-07-24T12:34:43.871Z,22.90
2018-07-24T12:37:13.448Z,22.80
2018-07-24T12:39:42.444Z,22.24
2018-07-24T12:42:12.018Z,20.94
2018-07-24T12:44:41.013Z,21.59
2018-07-24T12:47:09.659Z,21.35
2018-07-24T12:49:38.503Z,21.51
2018-07-24T12:52:07.487Z,21.08
2018-07-24T12:54:36.293Z,20.81
2018-07-24T12:57:04.972Z,21.14
2018-07-24T12:59:33.567Z,20.48
2018-07-24T13:02:02.498Z,20.37
2018-07-24T13:04:31.377Z,20.49
2018-07-24T13:07:00.367Z,19.57
2018-07-24T13:09:29.303Z,19.58
2018-07-24T13:11:58.522Z,19.38
2018-07-24T13:14:27.734Z,19.07
2018-07-24T13:16:56.599Z,19.55
2018-07-24T13:19:25.313Z,20.25
2018-07-24T13:21:54.202Z,19.94
2018-07-24T13:24:23.288Z,20.45
2018-07-24T13:26:52.066Z,19.87
2018-07-24T13:29:21.040Z,19.72
2018-07-24T13:31:49.815Z,20.21
2018-07-24T13:34:18.746Z,20.05
2018-07-24T13:36:47.921Z,20.32
2018-07-24T13:39:16.925Z,19.49
2018-07-24T13:41:45.618Z,19.89
2018-07-24T13:44:14.814Z,19.99
2018-07-24T13:46:43.620Z,19.19
2018-07-24T13:49:12.467Z,19.52
2018-07-24T13:51:41.251Z,19.59
2018-07-24T13:54:10.190Z,19.35
2018-07-24T13:56:38.903Z,19.96
2018-07-24T13:59:07.771Z,19.61
2018-07-24T14:01:36.354Z,19.19
2018-07-24T14:04:05.352Z,19.34
2018-07-24T14:06:34.065Z,19.54
2018-07-24T14:09:02.904Z,19.40
2018-07-24T14:11:31.777Z,19.02
2018-07-24T14:14:00.587Z,19.82
2018-07-24T14:16:29.292Z,19.70
2018-07-24T14:18:58.495Z,19.63
2018-07-24T14:21:27.193Z,19.61
2018-07-24T14:23:56.078Z,20.15
2018-07-24T14:26:25.328Z,19.77
2018-07-24T14:28:54.194Z,19.55
2018-07-24T14:31:22.872Z,19.25
2018-07-24T14:33:51.978Z,19.93
2018-07-24T14:36:21.145Z,19.66
2018-07-24T14:38:49.794Z,19.25
2018-07-24T14:41:19.026Z,19.30
2018-07-24T14:43:48.936Z,18.70
2018-07-24T14:46:18.791Z,18.75
2018-07-24T14:48:47.466Z,19.04
2018-07-24T14:51:16.376Z,18.56
2018-07-24T14:53:45.372Z,18.99
2018-07-24T14:56:14.152Z,18.97
2018-07-24T14:58:43.468Z,19.28
2018-07-24T15:01:12.569Z,19.58
2018-07-24T15:03:41.875Z,19.56
2018-07-24T15:06:10.926Z,19.21
2018-07-24T15:08:40.054Z,19.49
2018-07-24T15:11:08.709Z,18.65
2018-07-24T15:13:37.398Z,19.10
2018-07-24T15:16:06.569Z,18.21
2018-07-24T15:18:35.561Z,18.77
2018-07-24T15:21:04.608Z,17.43
2018-07-24T15:23:33.323Z,17.77
2018-07-24T15:26:02.241Z,17.11
2018-07-24T15:28:31.276Z,16.37
2018-07-24T15:30:59.889Z,16.33
2018-07-24T15:33:33.645Z,16.64
2018-07-24T15:36:02.755Z,16.88
2018-07-24T15:38:31.750Z,16.38
2018-07-24T15:41:00.617Z,16.49
2018-07-24T15:43:29.992Z,15.53
2018-07-24T15:45:59.155Z,15.67
2018-07-24T15:48:28.198Z,15.38
2018-07-24T15:50:57.281Z,15.63
2018-07-24T15:53:26.187Z,14.59
2018-07-24T15:55:55.323Z,14.30
2018-07-24T15:58:24.293Z,14.63
2018-07-24T16:00:52.980Z,13.86
2018-07-24T16:03:21.976Z,14.33
2018-07-24T16:05:51.511Z,14.14
2018-07-24T16:08:20.373Z,14.38
2018-07-24T16:10:49.544Z,14.70
2018-07-24T16:13:18.364Z,13.97
2018-07-24T16:15:48.659Z,13.77
2018-07-24T16:18:17.562Z,13.56
2018-07-24T16:20:46.604Z,13.46
2018-07-24T16:23:15.303Z,13.45
2018-07-24T16:25:44.442Z,13.64
2018-07-24T16:28:13.345Z,13.97
2018-07-24T16:30:42.919Z,13.78
2018-07-24T16:33:12.013Z,14.70
2018-07-24T16:35:41.027Z,14.80
2018-07-24T16:38:10.368Z,15.78
2018-07-24T16:40:39.205Z,15.80
2018-07-24T16:43:08.143Z,15.73
2018-07-24T16:45:36.830Z,15.05
2018-07-24T16:48:05.659Z,15.22
2018-07-24T16:50:34.768Z,17.08
2018-07-24T16:53:03.761Z,16.59
2018-07-24T16:55:32.803Z,17.41
2018-07-24T16:58:02.594Z,17.73
2018-07-24T17:00:31.207Z,18.86
2018-07-24T17:03:00.008Z,20.23
2018-07-24T17:05:28.806Z,20.59
2018-07-24T17:07:57.774Z,20.14
2018-07-24T17:10:29.764Z,22.42
2018-07-24T17:12:59.001Z,23.05
2018-07-24T17:15:28.293Z,22.91
2018-07-24T17:17:57.541Z,23.46
2018-07-24T17:20:26.287Z,23.82
2018-07-24T17:23:01.649Z,23.62
2018-07-24T17:25:32.119Z,23.54
2018-07-24T17:28:00.794Z,23.54
2018-07-24T17:30:29.662Z,24.88
2018-07-24T17:32:58.479Z,25.69
2018-07-24T17:35:27.745Z,24.73
2018-07-24T17:37:56.348Z,24.32
2018-07-24T17:40:25.287Z,24.95
2018-07-24T17:42:54.043Z,26.68
2018-07-24T17:45:23.030Z,25.42
2018-07-24T17:47:52.086Z,24.84
2018-07-24T17:50:20.953Z,25.70
2018-07-24T17:52:49.638Z,26.15
2018-07-24T17:55:18.602Z,24.96
2018-07-24T17:57:47.572Z,26.01
2018-07-24T18:00:16.206Z,26.10
2018-07-24T18:02:45.277Z,26.35
2018-07-24T18:05:14.437Z,26.75
2018-07-24T18:07:43.966Z,25.88
2018-07-24T18:10:12.714Z,27.32
2018-07-24T18:12:41.433Z,26.20
2018-07-24T18:15:10.235Z,27.36
2018-07-24T18:17:39.746Z,28.08
2018-07-24T18:20:08.685Z,27.08
2018-07-24T18:22:38.219Z,27.87
2018-07-24T18:25:06.941Z,28.31
2018-07-24T18:27:35.718Z,28.29
2018-07-24T18:30:05.114Z,29.04
2018-07-24T18:32:33.959Z,29.24
2018-07-24T18:35:02.613Z,27.92
2018-07-24T18:37:32.105Z,30.25
2018-07-24T18:40:01.073Z,28.94
2018-07-24T18:42:30.507Z,29.24
2018-07-24T18:44:59.109Z,29.67
2018-07-24T18:47:27.641Z,29.64
2018-07-24T18:49:56.820Z,30.29
2018-07-24T18:52:25.898Z,29.95
2018-07-24T18:54:54.628Z,29.40
2018-07-24T18:57:24.110Z,30.45
2018-07-24T18:59:53.093Z,31.41
2018-07-24T19:02:22.279Z,30.97
2018-07-24T19:04:51.415Z,31.71
2018-07-24T19:07:20.009Z,30.74
2018-07-24T19:09:48.981Z,30.88
2018-07-24T19:12:18.091Z,30.94
2018-07-24T19:14:47.420Z,32.10
2018-07-24T19:17:16.289Z,31.71
2018-07-24T19:19:45.306Z,33.02
2018-07-24T19:22:14.237Z,31.78
2018-07-24T19:24:43.393Z,31.55
2018-07-24T19:27:12.453Z,32.62
2018-07-24T19:29:41.677Z,32.25
2018-07-24T19:32:13.679Z,32.62
2018-07-24T19:34:42.626Z,32.43
2018-07-24T19:37:17.051Z,32.87
2018-07-24T19:39:46.366Z,34.25
2018-07-24T19:42:15.434Z,34.26
2018-07-24T19:44:44.394Z,34.52
2018-07-24T19:47:13.396Z,33.95
2018-07-24T19:49:42.338Z,34.44
2018-07-24T19:52:11.388Z,35.30
2018-07-24T19:54:40.074Z,35.19
2018-07-24T19:57:09.843Z,34.12
2018-07-24T19:59:38.304Z,34.69
2018-07-24T20:02:07.086Z,34.71
2018-07-24T20:04:36.221Z,34.15
2018-07-24T20:07:05.090Z,34.01
2018-07-24T20:09:33.880Z,34.91
2018-07-24T20:12:02.719Z,34.67
2018-07-24T20:14:31.163Z,34.97
2018-07-24T20:16:59.700Z,34.73
2018-07-24T20:19:28.124Z,34.42
2018-07-24T20:21:56.654Z,35.12
2018-07-24T20:24:25.377Z,34.60
2018-07-24T20:26:53.985Z,35.09
2018-07-24T20:29:22.653Z,35.41
2018-07-24T20:31:51.442Z,35.40
2018-07-24T20:34:20.030Z,34.80
2018-07-24T20:36:49.016Z,35.74
2018-07-24T20:39:17.492Z,36.15
2018-07-24T20:41:46.176Z,35.72
2018-07-24T20:44:14.943Z,35.90
2018-07-24T20:46:43.660Z,36.14
2018-07-24T20:49:12.125Z,35.96
2018-07-24T20:51:40.809Z,35.92
2018-07-24T20:54:09.976Z,35.54
2018-07-24T20:56:39.293Z,35.70
2018-07-24T20:59:07.946Z,36.56
2018-07-24T21:01:36.899Z,35.98
2018-07-24T21:04:05.922Z,37.11
2018-07-24T21:06:35.228Z,37.01
2018-07-24T21:09:06.768Z,37.31
2018-07-24T21:11:36.934Z,37.33
2018-07-24T21:14:05.684Z,36.81
2018-07-24T21:16:34.495Z,37.45
2018-07-24T21:19:03.122Z,38.46
2018-07-24T21:21:31.749Z,38.19
2018-07-24T21:24:00.933Z,40.00
2018-07-24T21:26:29.476Z,39.68
2018-07-24T21:28:58.360Z,41.12
2018-07-24T21:31:27.089Z,43.08
2018-07-24T21:33:55.632Z,43.91
2018-07-24T21:36:24.278Z,44.64
2018-07-24T21:38:52.989Z,45.19
2018-07-24T21:41:21.525Z,45.94
2018-07-24T21:43:50.044Z,46.89
2018-07-24T21:46:18.630Z,47.22
2018-07-24T21:48:47.084Z,47.08
2018-07-24T21:51:15.821Z,48.42
2018-07-24T21:53:44.405Z,48.68
2018-07-24T21:56:13.071Z,49.13
2018-07-24T21:58:41.595Z,49.07
2018-07-24T22:01:13.337Z,49.68
2018-07-24T22:03:42.911Z,49.25
2018-07-24T22:06:11.830Z,49.90
2018-07-24T22:08:40.810Z,49.72
2018-07-24T22:11:09.443Z,49.52
2018-07-24T22:13:38.173Z,51.13
2018-07-24T22:16:06.752Z,50.93
2018-07-24T22:18:35.338Z,50.82
2018-07-24T22:21:04.045Z,51.60
2018-07-24T22:23:32.557Z,51.72
2018-07-24T22:26:01.209Z,52.07
2018-07-24T22:28:29.697Z,52.70
2018-07-24T22:30:59.343Z,53.02
2018-07-24T22:33:27.870Z,52.36
2018-07-24T22:35:56.357Z,53.21
2018-07-24T22:38:24.894Z,53.79
2018-07-24T22:40:53.436Z,54.32
2018-07-24T22:43:21.908Z,54.22
2018-07-24T22:45:50.578Z,54.61
2018-07-24T22:48:19.165Z,54.77
2018-07-24T22:50:47.893Z,54.08
2018-07-24T22:53:16.404Z,55.08
2018-07-24T22:55:44.884Z,54.79
2018-07-24T22:58:13.532Z,55.05
2018-07-24T23:00:42.096Z,55.70
2018-07-24T23:03:10.552Z,56.00
2018-07-24T23:05:39.045Z,55.13
2018-07-24T23:08:07.569Z,55.89
2018-07-24T23:10:36.013Z,56.19
2018-07-24T23:13:05.426Z,55.91
2018-07-24T23:15:33.944Z,56.65
2018-07-24T23:18:02.593Z,56.57
2018-07-24T23:20:31.108Z,57.16
2018-07-24T23:22:59.582Z,56.27
2018-07-24T23:25:28.039Z,57.09
2018-07-24T23:27:56.461Z,56.45
2018-07-24T23:30:25.028Z,56.43
2018-07-24T23:32:53.581Z,57.42
2018-07-24T23:35:22.037Z,57.59
2018-07-24T23:37:50.475Z,57.05
2018-07-24T23:40:19.076Z,57.50
2018-07-24T23:42:47.583Z,57.40
2018-07-24T23:45:16.124Z,57.53
2018-07-24T23:47:44.978Z,57.60
2018-07-24T23:50:13.715Z,58.18
2018-07-24T23:52:42.410Z,57.59
2018-07-24T23:55:10.903Z,57.87
2018-07-24T23:57:39.364Z,58.72
